気象予報士の航空気象 ゾロ目イベント!

*All archives   *Admin

2009.11.11 (Wed)

ゾロ目イベント!

11月11日、ぞろ目です。


街中を走っていると、パチンコ店の店先にはなにやらのぼりが乱舞。


風も強く、雨の影響か、なんだかびちょびちょべたべた。。。


さわやかなイメージはまったくなく、店内では欲望の渦巻く魔の巣なのでしょうか・・・


営業まわりのサボリーマンもいることでしょう。


金をもらってパチンコ入り浸るサラリーマンて、いったい???


ある意味、うらやましい。


金もらって、ふらふら遊んでいるんですからね。


ちなみに羽田の天気、お昼頃、めちゃ悪です。


110221Z 31007KT 280V360 2000 R34L/1000VP1800D R22/0800VP1800D R34R/1400VP1800N +SHRA BR FEW003 SCT012 BKN020 17/16 Q1004 RMK 1ST003 3CU012 6CU020 A2966 RI++




ブログランキングに参加しています。
にほんブログ村 環境ブログ 天気・気象学へ
にほんブログ村
応援クリックをおねがします。


以下、アフィリエイトサイトです。





スポンサーサイト
23:01  |  時事  |  TB(0)  |  CM(0)  |  EDIT  |  Top↑

コメントを投稿する


 管理者だけに表示  (非公開コメント投稿可能)

▲PageTop

この記事のトラックバックURL

→http://weathereucalyptus.blog115.fc2.com/tb.php/296-a845080c
この記事にトラックバックする(FC2ブログユーザー)

この記事へのトラックバック

▲PageTop

 | BLOGTOP |